createdAt,value
2019-05-28T00:00:09.124Z,14.37
2019-05-28T00:02:38.331Z,12.77
2019-05-28T00:05:07.542Z,12.13
2019-05-28T00:07:36.651Z,9.00
2019-05-28T00:10:06.321Z,9.93
2019-05-28T00:12:35.404Z,6.90
2019-05-28T00:15:06.250Z,11.03
2019-05-28T00:17:35.344Z,6.47
2019-05-28T00:20:05.651Z,9.87
2019-05-28T00:22:34.654Z,13.53
2019-05-28T00:25:04.374Z,6.37
2019-05-28T00:27:33.376Z,9.30
2019-05-28T00:30:18.638Z,9.37
2019-05-28T00:32:33.083Z,10.23
2019-05-28T00:35:02.028Z,9.30
2019-05-28T00:37:31.045Z,8.67
2019-05-28T00:40:02.590Z,6.70
2019-05-28T00:42:32.948Z,9.10
2019-05-28T00:45:02.031Z,7.83
2019-05-28T00:47:31.132Z,10.90
2019-05-28T00:50:00.146Z,11.03
2019-05-28T00:52:29.129Z,8.97
2019-05-28T00:54:58.067Z,9.03
2019-05-28T00:57:27.095Z,9.17
2019-05-28T00:59:56.305Z,8.20
2019-05-28T01:02:25.247Z,8.43
2019-05-28T01:04:54.240Z,6.70
2019-05-28T01:07:23.219Z,11.77
2019-05-28T01:09:52.182Z,8.37
2019-05-28T01:12:21.116Z,9.53
2019-05-28T01:14:50.075Z,9.37
2019-05-28T01:17:19.001Z,9.13
2019-05-28T01:19:47.965Z,7.67
2019-05-28T01:22:16.898Z,8.33
2019-05-28T01:24:45.858Z,6.93
2019-05-28T01:27:14.809Z,8.33
2019-05-28T01:29:43.744Z,13.40
2019-05-28T01:32:12.685Z,8.37
2019-05-28T01:34:41.646Z,12.23
2019-05-28T01:37:10.643Z,10.40
2019-05-28T01:39:39.583Z,8.67
2019-05-28T01:42:08.535Z,11.43
2019-05-28T01:44:37.472Z,9.40
2019-05-28T01:47:06.419Z,14.37
2019-05-28T01:49:35.354Z,7.33
2019-05-28T01:52:04.384Z,13.87
2019-05-28T01:54:33.318Z,7.50
2019-05-28T01:57:02.278Z,7.13
2019-05-28T01:59:31.280Z,10.60
2019-05-28T02:02:00.231Z,12.47
2019-05-28T02:04:29.162Z,9.60
2019-05-28T02:06:59.067Z,9.63
2019-05-28T02:09:28.000Z,7.67
2019-05-28T02:11:56.942Z,10.93
2019-05-28T02:14:25.887Z,12.80
2019-05-28T02:16:54.847Z,9.10
2019-05-28T02:19:23.786Z,12.47
2019-05-28T02:21:52.731Z,8.03
2019-05-28T02:24:21.665Z,10.67
2019-05-28T02:26:50.755Z,9.73
2019-05-28T02:29:19.748Z,9.23
2019-05-28T02:31:48.765Z,10.07
2019-05-28T02:34:17.679Z,9.77
2019-05-28T02:36:48.242Z,10.60
2019-05-28T02:39:17.179Z,8.93
2019-05-28T02:41:46.126Z,10.43
2019-05-28T02:44:15.077Z,8.57
2019-05-28T02:46:44.019Z,8.80
2019-05-28T02:49:12.945Z,8.93
2019-05-28T02:51:42.179Z,9.67
2019-05-28T02:54:11.639Z,9.23
2019-05-28T02:56:41.459Z,9.60
2019-05-28T02:59:11.931Z,9.90
2019-05-28T03:01:44.692Z,11.60
2019-05-28T03:04:12.247Z,10.57
2019-05-28T03:06:41.196Z,11.23
2019-05-28T03:09:10.217Z,13.07
2019-05-28T03:11:39.220Z,10.17
2019-05-28T03:14:08.199Z,11.03
2019-05-28T03:16:38.674Z,12.33
2019-05-28T03:19:08.584Z,12.30
2019-05-28T03:21:38.311Z,9.77
2019-05-28T03:24:07.828Z,11.53
2019-05-28T03:26:36.780Z,8.37
2019-05-28T03:29:05.887Z,9.60
2019-05-28T03:31:34.912Z,10.93
2019-05-28T03:34:03.851Z,9.00
2019-05-28T03:36:33.459Z,13.57
2019-05-28T03:39:02.773Z,9.07
2019-05-28T03:41:31.727Z,11.13
2019-05-28T03:44:00.737Z,13.83
2019-05-28T03:46:29.741Z,8.10
2019-05-28T03:48:58.673Z,10.80
2019-05-28T03:51:27.625Z,11.07
2019-05-28T03:53:56.567Z,12.83
2019-05-28T03:56:25.507Z,13.00
2019-05-28T03:58:54.459Z,9.77
2019-05-28T04:01:23.403Z,12.20
2019-05-28T04:03:52.347Z,9.80
2019-05-28T04:06:21.283Z,11.03
2019-05-28T04:08:50.232Z,15.80
2019-05-28T04:11:19.182Z,14.90
2019-05-28T04:13:48.208Z,13.73
2019-05-28T04:16:17.208Z,15.17
2019-05-28T04:18:46.154Z,16.53
2019-05-28T04:21:15.104Z,12.20
2019-05-28T04:23:44.139Z,17.30
2019-05-28T04:26:13.082Z,15.07
2019-05-28T04:28:42.023Z,16.53
2019-05-28T04:31:10.985Z,18.73
2019-05-28T04:33:41.018Z,15.80
2019-05-28T04:36:09.952Z,14.17
2019-05-28T04:38:38.906Z,14.87
2019-05-28T04:41:07.847Z,13.93
2019-05-28T04:43:36.790Z,11.90
2019-05-28T04:46:05.741Z,16.77
2019-05-28T04:48:34.696Z,14.30
2019-05-28T04:51:03.642Z,16.43
2019-05-28T04:53:32.597Z,12.23
2019-05-28T04:56:01.558Z,13.00
2019-05-28T04:58:30.565Z,11.83
2019-05-28T05:00:59.571Z,11.50
2019-05-28T05:03:29.675Z,15.70
2019-05-28T05:05:58.611Z,15.13
2019-05-28T05:08:27.635Z,10.27
2019-05-28T05:10:57.553Z,12.90
2019-05-28T05:13:26.527Z,13.57
2019-05-28T05:15:55.541Z,20.40
2019-05-28T05:18:24.513Z,13.73
2019-05-28T05:20:53.460Z,14.67
2019-05-28T05:23:22.433Z,12.40
2019-05-28T05:25:51.364Z,17.03
2019-05-28T05:28:20.326Z,16.27
2019-05-28T05:30:49.340Z,17.13
2019-05-28T05:33:43.033Z,13.57
2019-05-28T05:36:11.976Z,11.17
2019-05-28T05:38:40.944Z,14.23
2019-05-28T05:41:09.887Z,13.60
2019-05-28T05:43:38.948Z,12.53
2019-05-28T05:46:07.902Z,13.37
2019-05-28T05:48:36.868Z,11.83
2019-05-28T05:51:05.810Z,14.00
2019-05-28T05:53:34.769Z,14.07
2019-05-28T05:56:03.738Z,11.23
2019-05-28T05:58:32.739Z,14.70
2019-05-28T06:01:01.686Z,12.27
2019-05-28T06:03:40.455Z,14.00
2019-05-28T06:06:01.291Z,14.23
2019-05-28T06:08:30.249Z,12.87
2019-05-28T06:11:00.159Z,14.00
2019-05-28T06:13:29.104Z,10.27
2019-05-28T06:15:58.057Z,10.20
2019-05-28T06:18:27.012Z,15.75
2019-05-28T06:21:09.303Z,10.45
2019-05-28T06:23:26.615Z,9.35
2019-05-28T06:25:55.561Z,12.40
2019-05-28T06:28:24.500Z,8.25
2019-05-28T06:30:53.431Z,12.20
2019-05-28T06:33:22.388Z,8.33
2019-05-28T06:35:51.356Z,7.92
2019-05-28T06:38:20.588Z,11.78
2019-05-28T06:40:54.784Z,7.67
2019-05-28T06:43:23.749Z,11.53
2019-05-28T06:45:52.699Z,11.03
2019-05-28T06:48:21.652Z,9.10
2019-05-28T06:50:50.626Z,8.55
2019-05-28T06:53:19.622Z,11.55
2019-05-28T06:55:48.572Z,11.63
2019-05-28T06:58:18.496Z,9.53
2019-05-28T07:00:47.449Z,11.08
2019-05-28T07:03:16.383Z,9.43
2019-05-28T07:05:45.352Z,8.13
2019-05-28T07:08:15.234Z,7.80
2019-05-28T07:10:57.142Z,13.20
2019-05-28T07:13:14.836Z,10.15
2019-05-28T07:15:44.459Z,10.40
2019-05-28T07:18:13.393Z,9.95
2019-05-28T07:20:43.415Z,12.80
2019-05-28T07:23:12.377Z,9.48
2019-05-28T07:25:41.459Z,12.35
2019-05-28T07:28:14.116Z,10.93
2019-05-28T07:30:43.199Z,20.68
2019-05-28T07:33:12.229Z,20.12
2019-05-28T07:35:45.757Z,15.28
2019-05-28T07:38:11.832Z,14.78
2019-05-28T07:40:40.789Z,11.97
2019-05-28T07:43:09.727Z,9.10
2019-05-28T07:45:38.970Z,13.87
2019-05-28T07:48:07.982Z,10.97
2019-05-28T07:50:36.920Z,10.65
2019-05-28T07:53:05.856Z,10.67
2019-05-28T07:55:34.807Z,11.87
2019-05-28T07:58:03.816Z,8.40
2019-05-28T08:00:35.229Z,6.63
2019-05-28T08:03:04.839Z,5.27
2019-05-28T08:05:34.251Z,8.33
2019-05-28T08:08:04.370Z,8.23
2019-05-28T08:10:33.308Z,8.68
2019-05-28T08:13:04.002Z,10.97
2019-05-28T08:15:33.034Z,7.73
2019-05-28T08:18:01.975Z,4.10
2019-05-28T08:20:30.933Z,6.20
2019-05-28T08:22:59.871Z,9.17
2019-05-28T08:25:46.224Z,5.40
2019-05-28T08:28:16.415Z,5.83
2019-05-28T08:30:30.176Z,8.38
2019-05-28T08:32:59.126Z,7.28
2019-05-28T08:35:28.117Z,8.80
2019-05-28T08:37:57.063Z,8.10
2019-05-28T08:40:26.113Z,9.48
2019-05-28T08:42:55.131Z,7.50
2019-05-28T08:45:24.077Z,4.70
2019-05-28T08:47:53.008Z,5.30
2019-05-28T08:50:33.794Z,8.53
2019-05-28T08:52:52.576Z,4.60
2019-05-28T08:55:21.522Z,4.92
2019-05-28T08:57:50.502Z,5.45
2019-05-28T09:00:38.503Z,5.53
2019-05-28T09:03:08.477Z,4.60
2019-05-28T09:05:37.610Z,5.40
2019-05-28T09:08:06.543Z,8.38
2019-05-28T09:10:35.551Z,7.70
2019-05-28T09:13:04.621Z,8.73
2019-05-28T09:15:33.853Z,10.88
2019-05-28T09:18:03.210Z,12.20
2019-05-28T09:20:32.338Z,5.72
2019-05-28T09:23:01.269Z,7.70
2019-05-28T09:25:30.215Z,8.50
2019-05-28T09:27:59.155Z,5.60
2019-05-28T09:30:28.127Z,6.45
2019-05-28T09:32:57.243Z,4.70
2019-05-28T09:35:43.364Z,6.15
2019-05-28T09:37:57.871Z,6.28
2019-05-28T09:40:26.845Z,5.28
2019-05-28T09:42:55.772Z,5.17
2019-05-28T09:45:24.723Z,3.98
2019-05-28T09:47:55.330Z,6.15
2019-05-28T09:50:30.671Z,6.70
2019-05-28T09:52:55.581Z,7.00
2019-05-28T09:55:24.647Z,5.47
2019-05-28T09:57:53.606Z,6.95
2019-05-28T10:00:23.349Z,7.33
2019-05-28T10:02:52.361Z,3.92
2019-05-28T10:05:21.540Z,4.65
2019-05-28T10:07:50.488Z,5.22
2019-05-28T10:10:19.508Z,6.85
2019-05-28T10:12:48.520Z,5.90
2019-05-28T10:15:17.733Z,5.50
2019-05-28T10:17:46.702Z,6.03
2019-05-28T10:20:16.073Z,4.75
2019-05-28T10:22:45.024Z,8.43
2019-05-28T10:25:14.262Z,5.30
2019-05-28T10:27:59.172Z,6.95
2019-05-28T10:30:14.203Z,7.40
2019-05-28T10:32:43.195Z,4.12
2019-05-28T10:35:14.252Z,7.30
2019-05-28T10:37:43.247Z,5.30
2019-05-28T10:40:13.722Z,4.35
2019-05-28T10:42:44.251Z,6.58
2019-05-28T10:45:14.753Z,5.80
2019-05-28T10:47:43.720Z,6.95
2019-05-28T10:50:13.103Z,7.58
2019-05-28T10:52:42.137Z,6.45
2019-05-28T10:55:11.128Z,7.03
2019-05-28T10:57:40.148Z,3.37
2019-05-28T11:00:10.177Z,6.35
2019-05-28T11:02:39.124Z,5.47
2019-05-28T11:05:08.432Z,5.35
2019-05-28T11:07:37.403Z,6.22
2019-05-28T11:10:22.557Z,7.58
2019-05-28T11:12:38.483Z,7.15
2019-05-28T11:15:08.192Z,3.72
2019-05-28T11:17:37.212Z,5.35
2019-05-28T11:20:07.115Z,5.80
2019-05-28T11:22:36.062Z,7.33
2019-05-28T11:25:06.413Z,6.95
2019-05-28T11:27:35.372Z,6.33
2019-05-28T11:30:08.348Z,5.55
2019-05-28T11:32:37.289Z,6.28
2019-05-28T11:35:06.410Z,7.67
2019-05-28T11:37:36.398Z,5.97
2019-05-28T11:40:08.045Z,8.30
2019-05-28T11:42:36.986Z,6.10
2019-05-28T11:45:07.977Z,9.23
2019-05-28T11:47:38.486Z,7.00
2019-05-28T11:50:08.371Z,5.12
2019-05-28T11:52:37.410Z,7.15
2019-05-28T11:55:10.273Z,5.65
2019-05-28T11:57:38.588Z,8.58
2019-05-28T12:00:07.944Z,6.72
2019-05-28T12:02:36.932Z,6.30
2019-05-28T12:05:07.404Z,5.28
2019-05-28T12:07:36.343Z,4.78
2019-05-28T12:10:05.752Z,6.83
2019-05-28T12:12:36.351Z,5.55
2019-05-28T12:15:09.851Z,7.05
2019-05-28T12:17:43.585Z,6.10
2019-05-28T12:20:11.357Z,5.17
2019-05-28T12:22:40.751Z,6.80
2019-05-28T12:25:12.814Z,4.70
2019-05-28T12:27:41.763Z,4.33
2019-05-28T12:30:11.577Z,4.15
2019-05-28T12:32:40.588Z,4.80
2019-05-28T12:35:26.199Z,4.35
2019-05-28T12:37:48.751Z,8.28
2019-05-28T12:40:13.796Z,6.67
2019-05-28T12:42:42.783Z,5.42
2019-05-28T12:45:13.277Z,5.10
2019-05-28T12:47:42.241Z,7.40
2019-05-28T12:50:19.861Z,5.03
2019-05-28T12:52:46.506Z,4.40
2019-05-28T12:55:13.997Z,5.80
2019-05-28T12:57:42.936Z,5.35
2019-05-28T13:00:12.771Z,5.83
2019-05-28T13:02:41.791Z,5.70
2019-05-28T13:05:11.899Z,5.28
2019-05-28T13:07:40.851Z,4.28
2019-05-28T13:10:13.048Z,4.62
2019-05-28T13:12:41.591Z,5.97
2019-05-28T13:15:12.086Z,4.80
2019-05-28T13:17:42.588Z,4.35
2019-05-28T13:20:14.601Z,6.17
2019-05-28T13:22:43.691Z,5.80
2019-05-28T13:25:12.812Z,5.55
2019-05-28T13:27:41.755Z,5.00
2019-05-28T13:30:12.033Z,4.37
2019-05-28T13:32:41.626Z,4.30
2019-05-28T13:35:11.283Z,5.70
2019-05-28T13:37:41.295Z,4.25
2019-05-28T13:40:10.925Z,6.53
2019-05-28T13:42:39.861Z,5.87
2019-05-28T13:45:09.105Z,5.37
2019-05-28T13:47:38.080Z,5.35
2019-05-28T13:50:07.794Z,5.10
2019-05-28T13:52:36.736Z,4.80
2019-05-28T13:55:06.453Z,4.67
2019-05-28T13:57:39.317Z,7.90
2019-05-28T14:00:11.047Z,4.42
2019-05-28T14:02:45.498Z,4.42
2019-05-28T14:05:11.409Z,3.92
2019-05-28T14:07:40.379Z,4.12
2019-05-28T14:10:09.865Z,4.58
2019-05-28T14:12:40.230Z,4.10
2019-05-28T14:15:09.808Z,7.12
2019-05-28T14:17:39.084Z,6.12
2019-05-28T14:20:08.966Z,5.58
2019-05-28T14:22:38.405Z,8.17
2019-05-28T14:25:08.462Z,9.53
2019-05-28T14:27:37.409Z,6.90
2019-05-28T14:30:10.563Z,7.83
2019-05-28T14:32:39.499Z,7.13
2019-05-28T14:35:08.922Z,6.93
2019-05-28T14:37:37.868Z,9.80
2019-05-28T14:40:07.658Z,8.00
2019-05-28T14:42:36.591Z,7.95
2019-05-28T14:45:06.202Z,6.35
2019-05-28T14:47:35.246Z,8.50
2019-05-28T14:50:07.491Z,7.37
2019-05-28T14:52:39.179Z,11.25
2019-05-28T14:55:08.396Z,7.15
2019-05-28T14:57:37.413Z,8.75
2019-05-28T15:00:08.243Z,8.18
2019-05-28T15:02:37.183Z,7.60
2019-05-28T15:05:14.274Z,6.22
2019-05-28T15:07:55.528Z,12.85
2019-05-28T15:10:24.543Z,6.58
2019-05-28T15:12:53.515Z,9.47
2019-05-28T15:15:35.457Z,6.70
2019-05-28T15:17:53.236Z,8.05
2019-05-28T15:20:22.182Z,9.88
2019-05-28T15:22:51.147Z,6.92
2019-05-28T15:25:20.092Z,7.83
2019-05-28T15:27:49.045Z,8.10
2019-05-28T15:30:18.152Z,6.27
2019-05-28T15:32:47.244Z,6.93
2019-05-28T15:35:16.196Z,6.20
2019-05-28T15:37:45.142Z,7.60
2019-05-28T15:40:14.406Z,7.60
2019-05-28T15:42:43.426Z,10.57
2019-05-28T15:45:14.170Z,5.95
2019-05-28T15:47:44.892Z,6.15
2019-05-28T15:50:17.121Z,9.70
2019-05-28T15:52:47.440Z,9.40
2019-05-28T15:55:17.588Z,8.83
2019-05-28T15:57:46.519Z,6.00
2019-05-28T16:00:20.017Z,7.63
2019-05-28T16:02:49.028Z,6.87
2019-05-28T16:05:17.988Z,8.73
2019-05-28T16:07:46.921Z,4.87
2019-05-28T16:10:17.116Z,5.67
2019-05-28T16:12:46.044Z,7.53
2019-05-28T16:15:16.237Z,11.03
2019-05-28T16:17:45.181Z,6.70
2019-05-28T16:20:15.660Z,5.90
2019-05-28T16:22:44.697Z,5.97
2019-05-28T16:25:15.286Z,6.70
2019-05-28T16:27:44.209Z,5.67
2019-05-28T16:30:13.547Z,8.67
2019-05-28T16:32:42.494Z,6.63
2019-05-28T16:35:11.522Z,6.40
2019-05-28T16:37:40.449Z,6.37
2019-05-28T16:40:15.721Z,10.47
2019-05-28T16:42:40.374Z,10.47
2019-05-28T16:45:09.772Z,9.37
2019-05-28T16:47:38.705Z,8.70
2019-05-28T16:50:08.023Z,8.90
2019-05-28T16:52:36.967Z,9.33
2019-05-28T16:55:06.292Z,7.37
2019-05-28T16:57:35.326Z,10.53
2019-05-28T17:00:05.873Z,9.77
2019-05-28T17:02:35.355Z,7.73
2019-05-28T17:05:07.611Z,8.17
2019-05-28T17:07:36.615Z,8.37
2019-05-28T17:10:07.242Z,9.27
2019-05-28T17:12:36.314Z,9.40
2019-05-28T17:15:05.990Z,12.17
2019-05-28T17:17:35.462Z,12.67
2019-05-28T17:20:08.918Z,9.83
2019-05-28T17:22:37.931Z,10.33
2019-05-28T17:25:10.978Z,13.77
2019-05-28T17:27:37.804Z,12.27
2019-05-28T17:30:17.988Z,10.47
2019-05-28T17:32:38.431Z,11.60
2019-05-28T17:35:07.940Z,10.60
2019-05-28T17:37:37.012Z,9.43
2019-05-28T17:40:06.335Z,13.70
2019-05-28T17:42:35.360Z,10.60
2019-05-28T17:45:29.880Z,9.63
2019-05-28T17:47:58.843Z,8.57
2019-05-28T17:50:27.847Z,9.37
2019-05-28T17:52:56.789Z,6.10
2019-05-28T17:55:25.730Z,4.93
2019-05-28T17:57:54.667Z,5.17
2019-05-28T18:00:23.629Z,4.40
2019-05-28T18:02:52.551Z,5.07
2019-05-28T18:05:21.532Z,5.93
2019-05-28T18:07:50.459Z,4.40
2019-05-28T18:10:19.410Z,4.17
2019-05-28T18:12:48.688Z,3.03
2019-05-28T18:15:17.635Z,4.40
2019-05-28T18:17:46.569Z,3.03
2019-05-28T18:20:15.717Z,7.63
2019-05-28T18:22:44.655Z,5.40
2019-05-28T18:25:13.615Z,6.40
2019-05-28T18:27:42.566Z,7.50
2019-05-28T18:30:11.490Z,3.73
2019-05-28T18:32:40.448Z,5.93
2019-05-28T18:35:10.546Z,4.00
2019-05-28T18:37:39.626Z,4.53
2019-05-28T18:40:09.194Z,6.33
2019-05-28T18:42:38.272Z,2.40
2019-05-28T18:45:08.350Z,6.33
2019-05-28T18:47:37.698Z,4.63
2019-05-28T18:50:07.103Z,3.10
2019-05-28T18:52:36.047Z,3.73
2019-05-28T18:55:08.248Z,4.77
2019-05-28T18:57:37.229Z,4.43
2019-05-28T19:00:09.486Z,3.70
2019-05-28T19:02:40.068Z,4.17
2019-05-28T19:05:10.824Z,2.50
2019-05-28T19:07:39.770Z,6.10
2019-05-28T19:10:09.077Z,2.93
2019-05-28T19:12:38.065Z,5.83
2019-05-28T19:15:07.269Z,5.27
2019-05-28T19:17:37.530Z,2.60
2019-05-28T19:20:08.559Z,3.50
2019-05-28T19:22:37.513Z,3.40
2019-05-28T19:25:07.681Z,2.70
2019-05-28T19:27:36.664Z,4.60
2019-05-28T19:30:10.006Z,4.73
2019-05-28T19:32:39.632Z,4.33
2019-05-28T19:35:09.740Z,3.10
2019-05-28T19:37:38.853Z,4.93
2019-05-28T19:40:09.045Z,3.73
2019-05-28T19:42:40.566Z,2.47
2019-05-28T19:45:09.575Z,3.07
2019-05-28T19:47:38.680Z,4.90
2019-05-28T19:50:10.703Z,4.83
2019-05-28T19:52:41.303Z,4.77
2019-05-28T19:55:10.254Z,5.10
2019-05-28T19:57:39.210Z,5.73
2019-05-28T20:00:08.465Z,5.13
2019-05-28T20:02:38.010Z,3.33
2019-05-28T20:05:08.291Z,3.87
2019-05-28T20:07:37.249Z,3.17
2019-05-28T20:10:06.452Z,3.80
2019-05-28T20:12:35.419Z,5.73
2019-05-28T20:15:10.875Z,3.80
2019-05-28T20:17:39.880Z,6.43
2019-05-28T20:20:09.202Z,2.50
2019-05-28T20:22:39.118Z,1.73
2019-05-28T20:25:08.115Z,4.03
2019-05-28T20:27:37.099Z,3.00
2019-05-28T20:30:07.202Z,5.60
2019-05-28T20:32:39.188Z,3.57
2019-05-28T20:35:10.142Z,1.60
2019-05-28T20:37:39.162Z,3.53
2019-05-28T20:40:08.555Z,4.10
2019-05-28T20:42:37.980Z,5.17
2019-05-28T20:45:08.603Z,7.30
2019-05-28T20:47:37.677Z,5.37
2019-05-28T20:50:07.599Z,6.40
2019-05-28T20:52:36.770Z,1.93
2019-05-28T20:55:09.132Z,2.27
2019-05-28T20:57:38.090Z,3.00
2019-05-28T21:00:07.682Z,4.47
2019-05-28T21:02:36.713Z,2.93
2019-05-28T21:05:07.315Z,3.43
2019-05-28T21:07:36.272Z,4.97
2019-05-28T21:10:06.214Z,4.80
2019-05-28T21:12:44.047Z,2.00
2019-05-28T21:15:08.873Z,3.20
2019-05-28T21:17:37.831Z,3.90
2019-05-28T21:20:10.121Z,3.93
2019-05-28T21:22:39.087Z,4.60
2019-05-28T21:25:08.295Z,1.80
2019-05-28T21:27:37.291Z,2.43
2019-05-28T21:33:01.555Z,1.70
2019-05-28T21:35:30.484Z,3.67
2019-05-28T21:37:59.433Z,5.37
2019-05-28T21:40:28.373Z,2.10
2019-05-28T21:43:04.759Z,3.43
2019-05-28T21:45:27.962Z,2.10
2019-05-28T21:47:56.948Z,4.73
2019-05-28T21:50:25.895Z,3.00
2019-05-28T21:52:54.977Z,3.37
2019-05-28T21:55:23.960Z,5.40
2019-05-28T21:57:53.578Z,1.87
2019-05-28T22:00:28.679Z,1.70
2019-05-28T22:02:59.246Z,4.60
2019-05-28T22:05:28.209Z,2.63
2019-05-28T22:07:57.349Z,4.70
2019-05-28T22:10:26.362Z,5.00
2019-05-28T22:12:55.647Z,4.80
2019-05-28T22:15:24.623Z,2.90
2019-05-28T22:17:53.564Z,2.07
2019-05-28T22:20:22.509Z,3.37
2019-05-28T22:22:51.466Z,2.50
2019-05-28T22:25:20.407Z,5.93
2019-05-28T22:27:49.368Z,2.87
2019-05-28T22:30:18.564Z,3.67
2019-05-28T22:32:47.507Z,4.20
2019-05-28T22:35:16.443Z,3.17
2019-05-28T22:37:45.406Z,1.90
2019-05-28T22:40:14.408Z,4.67
2019-05-28T22:42:43.508Z,3.80
2019-05-28T22:45:12.527Z,1.50
2019-05-28T22:47:41.474Z,2.90
2019-05-28T22:50:21.893Z,1.77
2019-05-28T22:52:41.560Z,3.27
2019-05-28T22:55:10.507Z,2.40
2019-05-28T22:57:39.445Z,4.93
2019-05-28T23:00:08.821Z,1.80
2019-05-28T23:02:37.875Z,5.10
2019-05-28T23:05:07.293Z,2.37
2019-05-28T23:07:36.330Z,6.30
2019-05-28T23:10:05.766Z,6.70
2019-05-28T23:12:34.706Z,2.27
2019-05-28T23:15:06.022Z,3.40
2019-05-28T23:17:35.033Z,5.00
2019-05-28T23:20:08.887Z,5.47
2019-05-28T23:22:37.954Z,2.13
2019-05-28T23:25:07.621Z,5.77
2019-05-28T23:27:36.591Z,3.77
2019-05-28T23:30:18.816Z,2.30
2019-05-28T23:32:36.659Z,5.17
2019-05-28T23:35:06.629Z,5.73
2019-05-28T23:37:35.586Z,4.20
2019-05-28T23:40:07.046Z,3.77
2019-05-28T23:42:37.002Z,3.73
2019-05-28T23:45:07.754Z,2.17
2019-05-28T23:47:36.862Z,1.97
2019-05-28T23:50:06.743Z,3.83
2019-05-28T23:52:35.812Z,3.33
2019-05-28T23:55:05.754Z,2.73
2019-05-28T23:57:34.747Z,4.87
